PWSweather.com
Personal Weather Stations
Station Observations
IBAVARIA50
Munich, PlieningDE 85652

MunichPlieningDE 85652

Lat: 48.19916153, Lon: 11.79794312

Elevation: 504

Station Type: Davis Vantage Pro2

http://wetterstation-pliening.info

High Low Average
Temperature 55.2°F12.9°F 43.7°F6.5°F 49.2°F9.6°F
Dew Point 48.5°F9.2°F 39.0°F3.9°F 44.1°F6.7°F
Winds 20.0 mph WSW32.2 mph WSW Calm Calm 6.0 mph 9.7 mph
Wind Gusts 25.0 mph40.2 mph 5.0 mph8.0 mph 11.6 mph18.7 mph
Humidity 94% 58% 84%
Pressure 30.06 in1017.90 in 29.98 in1015.20 in -
Precipitation 4.34 in110.20 in - -
Hour Temp Dew Point Humidity Winds Wind Gusts Pressure Precip Precip Rate Daily Precip Total
12:00 AM 53.5°F11.9°C 47.8°F8.8°C 81% 2.0 mph WNW3.2 kmh WNW 11.0 mph17.7 kmh 30.00 in1015.9 mb 0.00 in0.0 mm 0.00 in0.0 mm 0.00 in0.0 mm
12:05 AM 53.5°F11.9°C 47.8°F8.8°C 81% 9.0 mph W14.5 kmh W 12.0 mph19.3 kmh 30.00 in1015.9 mb 0.00 in0.0 mm 0.00 in0.0 mm 0.00 in0.0 mm
12:10 AM 53.5°F11.9°C 47.8°F8.8°C 81% 9.0 mph W14.5 kmh W 13.0 mph20.9 kmh 30.01 in1016.3 mb 0.00 in0.0 mm 0.00 in0.0 mm 0.00 in0.0 mm
12:15 AM 53.6°F12.0°C 48.2°F9.0°C 82% 5.0 mph WSW8.0 kmh WSW 12.0 mph19.3 kmh 30.02 in1016.6 mb 0.00 in0.0 mm 0.00 in0.0 mm 0.00 in0.0 mm
12:20 AM 53.3°F11.8°C 48.5°F9.2°C 84% 10.0 mph SW16.1 kmh SW 16.0 mph25.7 kmh 30.03 in1016.9 mb 0.02 in0.5 mm 0.24 in6.1 mm 0.02 in0.5 mm
12:25 AM 52.5°F11.4°C 48.1°F8.9°C 85% 12.0 mph SW19.3 kmh SW 18.0 mph29.0 kmh 30.04 in1017.3 mb 0.02 in0.5 mm 0.00 in0.0 mm 0.02 in0.5 mm
12:30 AM 51.9°F11.1°C 48.1°F8.9°C 87% 14.0 mph W22.5 kmh W 21.0 mph33.8 kmh 30.05 in1017.6 mb 0.03 in0.8 mm 0.12 in3.0 mm 0.03 in0.8 mm
12:35 AM 51.4°F10.8°C 48.2°F9.0°C 89% 11.0 mph W17.7 kmh W 15.0 mph24.1 kmh 30.05 in1017.6 mb 0.06 in1.5 mm 0.36 in9.1 mm 0.06 in1.5 mm
12:40 AM 51.0°F10.6°C 47.8°F8.8°C 89% 14.0 mph W22.5 kmh W 20.0 mph32.2 kmh 30.05 in1017.6 mb 0.06 in1.5 mm 0.00 in0.0 mm 0.06 in1.5 mm
12:45 AM 50.6°F10.3°C 47.7°F8.7°C 90% 6.0 mph WSW9.7 kmh WSW 18.0 mph29.0 kmh 30.05 in1017.6 mb 0.08 in2.0 mm 0.24 in6.1 mm 0.08 in2.0 mm
12:50 AM 50.3°F10.2°C 47.7°F8.7°C 91% 12.0 mph W19.3 kmh W 17.0 mph27.4 kmh 30.06 in1017.9 mb 0.09 in2.3 mm 0.12 in3.0 mm 0.09 in2.3 mm
12:55 AM 50.2°F10.1°C 47.9°F8.8°C 92% 10.0 mph W16.1 kmh W 14.0 mph22.5 kmh 30.06 in1017.9 mb 0.09 in2.3 mm 0.00 in0.0 mm 0.09 in2.3 mm
01:00 AM 50.0°F10.0°C 47.7°F8.7°C 92% 7.0 mph SW11.3 kmh SW 17.0 mph27.4 kmh 30.06 in1017.9 mb 0.09 in2.3 mm 0.00 in0.0 mm 0.09 in2.3 mm
01:05 AM 49.9°F9.9°C 47.6°F8.7°C 92% 5.0 mph W8.0 kmh W 14.0 mph22.5 kmh 30.05 in1017.6 mb 0.10 in2.5 mm 0.12 in3.0 mm 0.10 in2.5 mm
01:10 AM 49.9°F9.9°C 47.9°F8.8°C 93% 13.0 mph W20.9 kmh W 15.0 mph24.1 kmh 30.05 in1017.6 mb 0.10 in2.5 mm 0.00 in0.0 mm 0.10 in2.5 mm
01:15 AM 49.8°F9.9°C 47.8°F8.8°C 93% 7.0 mph W11.3 kmh W 14.0 mph22.5 kmh 30.05 in1017.6 mb 0.10 in2.5 mm 0.00 in0.0 mm 0.10 in2.5 mm
01:20 AM 49.8°F9.9°C 47.5°F8.6°C 92% 7.0 mph WSW11.3 kmh WSW 13.0 mph20.9 kmh 30.05 in1017.6 mb 0.09 in2.3 mm 0.00 in0.0 mm 0.10 in2.5 mm
01:25 AM 49.8°F9.9°C 47.5°F8.6°C 92% 12.0 mph W19.3 kmh W 16.0 mph25.7 kmh 30.05 in1017.6 mb 0.08 in2.0 mm 0.00 in0.0 mm 0.10 in2.5 mm
01:30 AM 49.8°F9.9°C 47.5°F8.6°C 92% 7.0 mph W11.3 kmh W 16.0 mph25.7 kmh 30.05 in1017.6 mb 0.07 in1.8 mm 0.00 in0.0 mm 0.10 in2.5 mm
01:35 AM 49.7°F9.8°C 47.1°F8.4°C 91% 5.0 mph WSW8.0 kmh WSW 14.0 mph22.5 kmh 30.05 in1017.6 mb 0.05 in1.3 mm 0.00 in0.0 mm 0.10 in2.5 mm
01:40 AM 49.6°F9.8°C 47.0°F8.3°C 91% 6.0 mph WSW9.7 kmh WSW 12.0 mph19.3 kmh 30.05 in1017.6 mb 0.04 in1.0 mm 0.00 in0.0 mm 0.10 in2.5 mm
01:45 AM 49.6°F9.8°C 47.3°F8.5°C 92% 3.0 mph W4.8 kmh W 11.0 mph17.7 kmh 30.05 in1017.6 mb 0.02 in0.5 mm 0.00 in0.0 mm 0.10 in2.5 mm
01:50 AM 49.5°F9.7°C 47.2°F8.4°C 92% 5.0 mph W8.0 kmh W 11.0 mph17.7 kmh 30.04 in1017.3 mb 0.02 in0.5 mm 0.00 in0.0 mm 0.10 in2.5 mm
01:55 AM 49.5°F9.7°C 47.2°F8.4°C 92% 6.0 mph WSW9.7 kmh WSW 9.0 mph14.5 kmh 30.04 in1017.3 mb 0.01 in0.3 mm 0.00 in0.0 mm 0.10 in2.5 mm
02:00 AM 49.5°F9.7°C 47.2°F8.4°C 92% 6.0 mph WSW9.7 kmh WSW 10.0 mph16.1 kmh 30.05 in1017.6 mb 0.01 in0.3 mm 0.00 in0.0 mm 0.10 in2.5 mm
02:05 AM 49.6°F9.8°C 47.3°F8.5°C 92% 3.0 mph W4.8 kmh W 9.0 mph14.5 kmh 30.05 in1017.6 mb 0.00 in0.0 mm 0.00 in0.0 mm 0.10 in2.5 mm
02:10 AM 49.6°F9.8°C 47.3°F8.5°C 92% 3.0 mph W4.8 kmh W 6.0 mph9.7 kmh 30.05 in1017.6 mb 0.00 in0.0 mm 0.00 in0.0 mm 0.10 in2.5 mm
02:15 AM 49.6°F9.8°C 47.3°F8.5°C 92% 4.0 mph W6.4 kmh W 7.0 mph11.3 kmh 30.05 in1017.6 mb 0.00 in0.0 mm 0.00 in0.0 mm 0.10 in2.5 mm
02:20 AM 49.6°F9.8°C 47.3°F8.5°C 92% 5.0 mph WSW8.0 kmh WSW 7.0 mph11.3 kmh 30.05 in1017.6 mb 0.01 in0.3 mm 0.12 in3.0 mm 0.11 in2.8 mm
02:25 AM 49.7°F9.8°C 47.4°F8.6°C 92% 5.0 mph W8.0 kmh W 11.0 mph17.7 kmh 30.05 in1017.6 mb 0.01 in0.3 mm 0.00 in0.0 mm 0.11 in2.8 mm
02:30 AM 49.6°F9.8°C 47.3°F8.5°C 92% 6.0 mph WSW9.7 kmh WSW 11.0 mph17.7 kmh 30.05 in1017.6 mb 0.01 in0.3 mm 0.00 in0.0 mm 0.11 in2.8 mm
02:35 AM 49.6°F9.8°C 47.3°F8.5°C 92% 7.0 mph WSW11.3 kmh WSW 12.0 mph19.3 kmh 30.05 in1017.6 mb 0.01 in0.3 mm 0.00 in0.0 mm 0.11 in2.8 mm
02:40 AM 49.7°F9.8°C 47.4°F8.6°C 92% 7.0 mph W11.3 kmh W 10.0 mph16.1 kmh 30.05 in1017.6 mb 0.02 in0.5 mm 0.12 in3.0 mm 0.12 in3.0 mm
02:45 AM 49.6°F9.8°C 47.3°F8.5°C 92% 4.0 mph WSW6.4 kmh WSW 9.0 mph14.5 kmh 30.04 in1017.3 mb 0.02 in0.5 mm 0.00 in0.0 mm 0.12 in3.0 mm
02:50 AM 49.5°F9.7°C 47.5°F8.6°C 93% 6.0 mph WSW9.7 kmh WSW 10.0 mph16.1 kmh 30.04 in1017.3 mb 0.02 in0.5 mm 0.00 in0.0 mm 0.13 in3.3 mm
02:55 AM 49.3°F9.6°C 47.0°F8.3°C 92% 5.0 mph WSW8.0 kmh WSW 11.0 mph17.7 kmh 30.05 in1017.6 mb 0.02 in0.5 mm 0.00 in0.0 mm 0.13 in3.3 mm
03:00 AM 49.4°F9.7°C 47.1°F8.4°C 92% 2.0 mph W3.2 kmh W 12.0 mph19.3 kmh 30.04 in1017.3 mb 0.02 in0.5 mm 0.00 in0.0 mm 0.13 in3.3 mm
03:05 AM 49.4°F9.7°C 47.1°F8.4°C 92% 3.0 mph W4.8 kmh W 9.0 mph14.5 kmh 30.04 in1017.3 mb 0.03 in0.8 mm 0.12 in3.0 mm 0.13 in3.3 mm
03:10 AM 49.3°F9.6°C 47.3°F8.5°C 93% 7.0 mph WNW11.3 kmh WNW 10.0 mph16.1 kmh 30.04 in1017.3 mb 0.03 in0.8 mm 0.00 in0.0 mm 0.13 in3.3 mm
03:15 AM 49.3°F9.6°C 47.3°F8.5°C 93% 4.0 mph W6.4 kmh W 7.0 mph11.3 kmh 30.04 in1017.3 mb 0.03 in0.8 mm 0.00 in0.0 mm 0.13 in3.3 mm
03:20 AM 49.3°F9.6°C 47.3°F8.5°C 93% 4.0 mph WSW6.4 kmh WSW 7.0 mph11.3 kmh 30.04 in1017.3 mb 0.02 in0.5 mm 0.00 in0.0 mm 0.13 in3.3 mm
03:25 AM 49.2°F9.6°C 47.2°F8.4°C 93% 3.0 mph WSW4.8 kmh WSW 5.0 mph8.0 kmh 30.04 in1017.3 mb 0.02 in0.5 mm 0.00 in0.0 mm 0.13 in3.3 mm
03:30 AM 49.2°F9.6°C 47.2°F8.4°C 93% 3.0 mph WSW4.8 kmh WSW 9.0 mph14.5 kmh 30.04 in1017.3 mb 0.02 in0.5 mm 0.00 in0.0 mm 0.13 in3.3 mm
03:35 AM 49.2°F9.6°C 47.5°F8.6°C 94% 6.0 mph SW9.7 kmh SW 6.0 mph9.7 kmh 30.05 in1017.6 mb 0.02 in0.5 mm 0.00 in0.0 mm 0.13 in3.3 mm
03:40 AM 49.1°F9.5°C 47.4°F8.6°C 94% 4.0 mph SSW6.4 kmh SSW 8.0 mph12.9 kmh 30.04 in1017.3 mb 0.02 in0.5 mm 0.00 in0.0 mm 0.13 in3.3 mm
03:45 AM 49.2°F9.6°C 47.5°F8.6°C 94% 5.0 mph SSW8.0 kmh SSW 7.0 mph11.3 kmh 30.04 in1017.3 mb 0.02 in0.5 mm 0.00 in0.0 mm 0.13 in3.3 mm
03:50 AM 49.3°F9.6°C 47.3°F8.5°C 93% 3.0 mph SW4.8 kmh SW 11.0 mph17.7 kmh 30.04 in1017.3 mb 0.01 in0.3 mm 0.00 in0.0 mm 0.13 in3.3 mm
03:55 AM 49.4°F9.7°C 47.4°F8.6°C 93% 4.0 mph SW6.4 kmh SW 9.0 mph14.5 kmh 30.04 in1017.3 mb 0.01 in0.3 mm 0.00 in0.0 mm 0.13 in3.3 mm
04:00 AM 49.4°F9.7°C 47.4°F8.6°C 93% 6.0 mph SSW9.7 kmh SSW 8.0 mph12.9 kmh 30.04 in1017.3 mb 0.02 in0.5 mm 0.01 in0.3 mm 0.14 in3.6 mm
04:05 AM 49.5°F9.7°C 47.5°F8.6°C 93% 3.0 mph W4.8 kmh W 12.0 mph19.3 kmh 30.04 in1017.3 mb 0.01 in0.3 mm 0.00 in0.0 mm 0.14 in3.6 mm
04:10 AM 49.6°F9.8°C 47.3°F8.5°C 92% 6.0 mph WSW9.7 kmh WSW 13.0 mph20.9 kmh 30.04 in1017.3 mb 0.01 in0.3 mm 0.00 in0.0 mm 0.14 in3.6 mm
04:15 AM 49.5°F9.7°C 47.2°F8.4°C 92% 5.0 mph SW8.0 kmh SW 11.0 mph17.7 kmh 30.04 in1017.3 mb 0.01 in0.3 mm 0.00 in0.0 mm 0.14 in3.6 mm
04:20 AM 49.4°F9.7°C 47.1°F8.4°C 92% 5.0 mph WSW8.0 kmh WSW 12.0 mph19.3 kmh 30.04 in1017.3 mb 0.01 in0.3 mm 0.00 in0.0 mm 0.14 in3.6 mm
04:25 AM 49.4°F9.7°C 47.1°F8.4°C 92% 4.0 mph SW6.4 kmh SW 11.0 mph17.7 kmh 30.04 in1017.3 mb 0.01 in0.3 mm 0.00 in0.0 mm 0.14 in3.6 mm
04:30 AM 49.3°F9.6°C 47.0°F8.3°C 92% 10.0 mph S16.1 kmh S 13.0 mph20.9 kmh 30.04 in1017.3 mb 0.01 in0.3 mm 0.00 in0.0 mm 0.14 in3.6 mm
04:35 AM 49.2°F9.6°C 46.9°F8.3°C 92% 8.0 mph SSW12.9 kmh SSW 11.0 mph17.7 kmh 30.04 in1017.3 mb 0.02 in0.5 mm 0.12 in3.0 mm 0.15 in3.8 mm
04:40 AM 49.2°F9.6°C 46.9°F8.3°C 92% 4.0 mph S6.4 kmh S 10.0 mph16.1 kmh 30.04 in1017.3 mb 0.02 in0.5 mm 0.00 in0.0 mm 0.15 in3.8 mm
04:45 AM 49.1°F9.5°C 46.8°F8.2°C 92% 5.0 mph SW8.0 kmh SW 11.0 mph17.7 kmh 30.04 in1017.3 mb 0.02 in0.5 mm 0.00 in0.0 mm 0.16 in4.1 mm
04:50 AM 49.0°F9.4°C 46.7°F8.2°C 92% 5.0 mph SW8.0 kmh SW 9.0 mph14.5 kmh 30.04 in1017.3 mb 0.02 in0.5 mm 0.00 in0.0 mm 0.16 in4.1 mm
04:55 AM 48.9°F9.4°C 46.9°F8.3°C 93% 4.0 mph SSW6.4 kmh SSW 7.0 mph11.3 kmh 30.04 in1017.3 mb 0.02 in0.5 mm 0.00 in0.0 mm 0.16 in4.1 mm
05:00 AM 48.9°F9.4°C 46.9°F8.3°C 93% 5.0 mph SW8.0 kmh SW 6.0 mph9.7 kmh 30.04 in1017.3 mb 0.02 in0.5 mm 0.00 in0.0 mm 0.16 in4.1 mm
05:05 AM 48.9°F9.4°C 46.9°F8.3°C 93% 7.0 mph S11.3 kmh S 7.0 mph11.3 kmh 30.05 in1017.6 mb 0.02 in0.5 mm 0.00 in0.0 mm 0.16 in4.1 mm
05:10 AM 48.8°F9.3°C 46.8°F8.2°C 93% 4.0 mph SSW6.4 kmh SSW 9.0 mph14.5 kmh 30.05 in1017.6 mb 0.02 in0.5 mm 0.00 in0.0 mm 0.17 in4.3 mm
05:15 AM 48.8°F9.3°C 46.8°F8.2°C 93% 1.0 mph SSW1.6 kmh SSW 10.0 mph16.1 kmh 30.05 in1017.6 mb 0.02 in0.5 mm 0.00 in0.0 mm 0.17 in4.3 mm
05:20 AM 48.7°F9.3°C 46.7°F8.2°C 93% 5.0 mph SSW8.0 kmh SSW 7.0 mph11.3 kmh 30.04 in1017.3 mb 0.03 in0.8 mm 0.12 in3.0 mm 0.17 in4.3 mm
05:25 AM 48.7°F9.3°C 46.7°F8.2°C 93% 5.0 mph SW8.0 kmh SW 12.0 mph19.3 kmh 30.04 in1017.3 mb 0.03 in0.8 mm 0.00 in0.0 mm 0.17 in4.3 mm
05:30 AM 48.6°F9.2°C 46.6°F8.1°C 93% 5.0 mph SW8.0 kmh SW 7.0 mph11.3 kmh 30.04 in1017.3 mb 0.03 in0.8 mm 0.00 in0.0 mm 0.17 in4.3 mm
05:35 AM 48.5°F9.2°C 46.2°F7.9°C 92% 5.0 mph SW8.0 kmh SW 13.0 mph20.9 kmh 30.04 in1017.3 mb 0.03 in0.8 mm 0.00 in0.0 mm 0.18 in4.6 mm
05:40 AM 48.4°F9.1°C 46.4°F8.0°C 93% 6.0 mph SSW9.7 kmh SSW 9.0 mph14.5 kmh 30.04 in1017.3 mb 0.04 in1.0 mm 0.12 in3.0 mm 0.19 in4.8 mm
05:45 AM 48.3°F9.1°C 46.3°F7.9°C 93% 2.0 mph SW3.2 kmh SW 8.0 mph12.9 kmh 30.04 in1017.3 mb 0.04 in1.0 mm 0.00 in0.0 mm 0.20 in5.1 mm
05:50 AM 48.2°F9.0°C 46.2°F7.9°C 93% 4.0 mph S6.4 kmh S 8.0 mph12.9 kmh 30.04 in1017.3 mb 0.05 in1.3 mm 0.12 in3.0 mm 0.20 in5.1 mm
05:55 AM 48.1°F8.9°C 46.1°F7.8°C 93% 3.0 mph S4.8 kmh S 7.0 mph11.3 kmh 30.04 in1017.3 mb 0.05 in1.3 mm 0.00 in0.0 mm 0.20 in5.1 mm
06:00 AM 48.1°F8.9°C 46.1°F7.8°C 93% 4.0 mph S6.4 kmh S 7.0 mph11.3 kmh 30.03 in1016.9 mb 0.05 in1.3 mm 0.00 in0.0 mm 0.20 in5.1 mm
06:05 AM 48.0°F8.9°C 46.0°F7.8°C 93% 4.0 mph S6.4 kmh S 9.0 mph14.5 kmh 30.04 in1017.3 mb 0.05 in1.3 mm 0.00 in0.0 mm 0.20 in5.1 mm
06:10 AM 48.0°F8.9°C 46.0°F7.8°C 93% 6.0 mph S9.7 kmh S 7.0 mph11.3 kmh 30.04 in1017.3 mb 0.04 in1.0 mm 0.00 in0.0 mm 0.20 in5.1 mm
06:15 AM 48.0°F8.9°C 46.0°F7.8°C 93% 3.0 mph S4.8 kmh S 7.0 mph11.3 kmh 30.04 in1017.3 mb 0.04 in1.0 mm 0.00 in0.0 mm 0.20 in5.1 mm
06:20 AM 48.0°F8.9°C 46.0°F7.8°C 93% 3.0 mph SE4.8 kmh SE 8.0 mph12.9 kmh 30.04 in1017.3 mb 0.03 in0.8 mm 0.00 in0.0 mm 0.20 in5.1 mm
06:25 AM 48.0°F8.9°C 46.0°F7.8°C 93% 3.0 mph SSW4.8 kmh SSW 6.0 mph9.7 kmh 30.03 in1016.9 mb 0.03 in0.8 mm 0.00 in0.0 mm 0.20 in5.1 mm
06:30 AM 48.0°F8.9°C 46.0°F7.8°C 93% 4.0 mph SSW6.4 kmh SSW 6.0 mph9.7 kmh 30.03 in1016.9 mb 0.03 in0.8 mm 0.00 in0.0 mm 0.20 in5.1 mm
06:35 AM 48.0°F8.9°C 46.0°F7.8°C 93% 3.0 mph S4.8 kmh S 10.0 mph16.1 kmh 30.04 in1017.3 mb 0.02 in0.5 mm 0.00 in0.0 mm 0.20 in5.1 mm
06:40 AM 48.0°F8.9°C 46.0°F7.8°C 93% 3.0 mph SSW4.8 kmh SSW 8.0 mph12.9 kmh 30.04 in1017.3 mb 0.02 in0.5 mm 0.00 in0.0 mm 0.20 in5.1 mm
06:45 AM 48.0°F8.9°C 45.7°F7.6°C 92% 2.0 mph S3.2 kmh S 7.0 mph11.3 kmh 30.04 in1017.3 mb 0.02 in0.5 mm 0.00 in0.0 mm 0.21 in5.3 mm
06:50 AM 48.0°F8.9°C 46.0°F7.8°C 93% 4.0 mph S6.4 kmh S 6.0 mph9.7 kmh 30.04 in1017.3 mb 0.01 in0.3 mm 0.00 in0.0 mm 0.21 in5.3 mm
06:55 AM 47.9°F8.8°C 45.9°F7.7°C 93% 2.0 mph SSE3.2 kmh SSE 5.0 mph8.0 kmh 30.04 in1017.3 mb 0.02 in0.5 mm 0.12 in3.0 mm 0.22 in5.6 mm
07:00 AM 47.9°F8.8°C 45.9°F7.7°C 93% 3.0 mph S4.8 kmh S 7.0 mph11.3 kmh 30.04 in1017.3 mb 0.02 in0.5 mm 0.00 in0.0 mm 0.22 in5.6 mm
07:05 AM 47.9°F8.8°C 45.9°F7.7°C 93% 2.0 mph S3.2 kmh S 6.0 mph9.7 kmh 30.04 in1017.3 mb 0.02 in0.5 mm 0.00 in0.0 mm 0.22 in5.6 mm
07:10 AM 47.9°F8.8°C 45.9°F7.7°C 93% 2.0 mph S3.2 kmh S 10.0 mph16.1 kmh 30.04 in1017.3 mb 0.02 in0.5 mm 0.00 in0.0 mm 0.22 in5.6 mm
07:15 AM 47.9°F8.8°C 45.6°F7.6°C 92% 4.0 mph SW6.4 kmh SW 7.0 mph11.3 kmh 30.04 in1017.3 mb 0.02 in0.5 mm 0.00 in0.0 mm 0.22 in5.6 mm
07:20 AM 47.9°F8.8°C 45.9°F7.7°C 93% 2.0 mph S3.2 kmh S 6.0 mph9.7 kmh 30.04 in1017.3 mb 0.02 in0.5 mm 0.00 in0.0 mm 0.22 in5.6 mm
07:25 AM 48.0°F8.9°C 45.7°F7.6°C 92% 3.0 mph S4.8 kmh S 6.0 mph9.7 kmh 30.04 in1017.3 mb 0.02 in0.5 mm 0.00 in0.0 mm 0.22 in5.6 mm
07:30 AM 47.9°F8.8°C 45.9°F7.7°C 93% 4.0 mph S6.4 kmh S 6.0 mph9.7 kmh 30.03 in1016.9 mb 0.02 in0.5 mm 0.00 in0.0 mm 0.22 in5.6 mm
07:35 AM 47.9°F8.8°C 45.9°F7.7°C 93% 2.0 mph SSE3.2 kmh SSE 6.0 mph9.7 kmh 30.03 in1016.9 mb 0.02 in0.5 mm 0.00 in0.0 mm 0.22 in5.6 mm
07:40 AM 48.0°F8.9°C 46.0°F7.8°C 93% 4.0 mph SE6.4 kmh SE 6.0 mph9.7 kmh 30.03 in1016.9 mb 0.02 in0.5 mm 0.00 in0.0 mm 0.22 in5.6 mm
07:45 AM 48.0°F8.9°C 46.0°F7.8°C 93% 3.0 mph S4.8 kmh S 6.0 mph9.7 kmh 30.03 in1016.9 mb 0.01 in0.3 mm 0.00 in0.0 mm 0.22 in5.6 mm
07:50 AM 48.1°F8.9°C 46.1°F7.8°C 93% 3.0 mph SSE4.8 kmh SSE 6.0 mph9.7 kmh 30.03 in1016.9 mb 0.01 in0.3 mm 0.00 in0.0 mm 0.22 in5.6 mm
07:55 AM 48.1°F8.9°C 46.1°F7.8°C 93% 3.0 mph SE4.8 kmh SE 6.0 mph9.7 kmh 30.04 in1017.3 mb 0.00 in0.0 mm 0.00 in0.0 mm 0.22 in5.6 mm
08:00 AM 48.2°F9.0°C 46.2°F7.9°C 93% 6.0 mph S9.7 kmh S 6.0 mph9.7 kmh 30.04 in1017.3 mb 0.00 in0.0 mm 0.00 in0.0 mm 0.22 in5.6 mm
08:05 AM 48.2°F9.0°C 46.2°F7.9°C 93% 2.0 mph S3.2 kmh S 6.0 mph9.7 kmh 30.04 in1017.3 mb 0.00 in0.0 mm 0.00 in0.0 mm 0.22 in5.6 mm
08:10 AM 48.3°F9.1°C 46.3°F7.9°C 93% 3.0 mph SSE4.8 kmh SSE 10.0 mph16.1 kmh 30.04 in1017.3 mb 0.00 in0.0 mm 0.00 in0.0 mm 0.22 in5.6 mm
08:15 AM 48.4°F9.1°C 46.1°F7.8°C 92% 3.0 mph S4.8 kmh S 9.0 mph14.5 kmh 30.04 in1017.3 mb 0.00 in0.0 mm 0.00 in0.0 mm 0.22 in5.6 mm
08:20 AM 48.4°F9.1°C 46.1°F7.8°C 92% 4.0 mph SSW6.4 kmh SSW 7.0 mph11.3 kmh 30.04 in1017.3 mb 0.00 in0.0 mm 0.00 in0.0 mm 0.22 in5.6 mm
08:25 AM 48.5°F9.2°C 45.9°F7.7°C 91% 3.0 mph SSW4.8 kmh SSW 9.0 mph14.5 kmh 30.04 in1017.3 mb 0.01 in0.3 mm 0.12 in3.0 mm 0.23 in5.8 mm
08:30 AM 48.5°F9.2°C 46.2°F7.9°C 92% 3.0 mph SSW4.8 kmh SSW 7.0 mph11.3 kmh 30.04 in1017.3 mb 0.01 in0.3 mm 0.00 in0.0 mm 0.23 in5.8 mm
08:35 AM 48.7°F9.3°C 46.4°F8.0°C 92% Calm Calm 6.0 mph9.7 kmh 30.04 in1017.3 mb 0.01 in0.3 mm 0.00 in0.0 mm 0.23 in5.8 mm
08:40 AM 48.8°F9.3°C 46.5°F8.1°C 92% 7.0 mph SSW11.3 kmh SSW 7.0 mph11.3 kmh 30.04 in1017.3 mb 0.01 in0.3 mm 0.00 in0.0 mm 0.23 in5.8 mm
08:45 AM 49.0°F9.4°C 46.7°F8.2°C 92% 4.0 mph SW6.4 kmh SW 7.0 mph11.3 kmh 30.03 in1016.9 mb 0.01 in0.3 mm 0.00 in0.0 mm 0.23 in5.8 mm
08:50 AM 49.3°F9.6°C 46.7°F8.2°C 91% 4.0 mph SW6.4 kmh SW 8.0 mph12.9 kmh 30.03 in1016.9 mb 0.01 in0.3 mm 0.00 in0.0 mm 0.23 in5.8 mm
08:55 AM 49.6°F9.8°C 46.7°F8.2°C 90% 10.0 mph SW16.1 kmh SW 12.0 mph19.3 kmh 30.03 in1016.9 mb 0.01 in0.3 mm 0.00 in0.0 mm 0.23 in5.8 mm
09:00 AM 49.9°F9.9°C 47.0°F8.3°C 90% 6.0 mph SSW9.7 kmh SSW 11.0 mph17.7 kmh 30.04 in1017.3 mb 0.01 in0.3 mm 0.00 in0.0 mm 0.23 in5.8 mm
09:05 AM 50.2°F10.1°C 47.0°F8.3°C 89% 3.0 mph SW4.8 kmh SW 13.0 mph20.9 kmh 30.04 in1017.3 mb 0.01 in0.3 mm 0.00 in0.0 mm 0.23 in5.8 mm
09:10 AM 50.5°F10.3°C 46.7°F8.2°C 87% 4.0 mph SSW6.4 kmh SSW 13.0 mph20.9 kmh 30.04 in1017.3 mb 0.01 in0.3 mm 0.00 in0.0 mm 0.23 in5.8 mm
09:15 AM 50.6°F10.3°C 46.5°F8.1°C 86% 6.0 mph SW9.7 kmh SW 13.0 mph20.9 kmh 30.03 in1016.9 mb 0.01 in0.3 mm 0.00 in0.0 mm 0.23 in5.8 mm
09:20 AM 50.6°F10.3°C 46.8°F8.2°C 87% 4.0 mph SW6.4 kmh SW 12.0 mph19.3 kmh 30.03 in1016.9 mb 0.01 in0.3 mm 0.00 in0.0 mm 0.23 in5.8 mm
09:25 AM 50.6°F10.3°C 46.5°F8.1°C 86% 5.0 mph SSW8.0 kmh SSW 15.0 mph24.1 kmh 30.04 in1017.3 mb 0.00 in0.0 mm 0.00 in0.0 mm 0.23 in5.8 mm
09:30 AM 50.7°F10.4°C 46.3°F7.9°C 85% 3.0 mph SW4.8 kmh SW 15.0 mph24.1 kmh 30.04 in1017.3 mb 0.00 in0.0 mm 0.00 in0.0 mm 0.23 in5.8 mm
09:35 AM 50.8°F10.4°C 46.7°F8.2°C 86% 6.0 mph SSW9.7 kmh SSW 15.0 mph24.1 kmh 30.04 in1017.3 mb 0.00 in0.0 mm 0.00 in0.0 mm 0.23 in5.8 mm
09:40 AM 50.8°F10.4°C 46.1°F7.8°C 84% 12.0 mph WSW19.3 kmh WSW 14.0 mph22.5 kmh 30.04 in1017.3 mb 0.00 in0.0 mm 0.00 in0.0 mm 0.23 in5.8 mm
09:45 AM 50.8°F10.4°C 45.8°F7.7°C 83% 12.0 mph SW19.3 kmh SW 14.0 mph22.5 kmh 30.04 in1017.3 mb 0.00 in0.0 mm 0.00 in0.0 mm 0.23 in5.8 mm
09:50 AM 50.9°F10.5°C 46.2°F7.9°C 84% 6.0 mph SW9.7 kmh SW 13.0 mph20.9 kmh 30.04 in1017.3 mb 0.00 in0.0 mm 0.00 in0.0 mm 0.23 in5.8 mm
09:55 AM 51.0°F10.6°C 46.6°F8.1°C 85% 7.0 mph SW11.3 kmh SW 13.0 mph20.9 kmh 30.04 in1017.3 mb 0.00 in0.0 mm 0.00 in0.0 mm 0.23 in5.8 mm
10:00 AM 51.0°F10.6°C 46.3°F7.9°C 84% 4.0 mph WSW6.4 kmh WSW 11.0 mph17.7 kmh 30.04 in1017.3 mb 0.00 in0.0 mm 0.00 in0.0 mm 0.23 in5.8 mm
10:05 AM 51.1°F10.6°C 46.7°F8.2°C 85% 6.0 mph SW9.7 kmh SW 10.0 mph16.1 kmh 30.03 in1016.9 mb 0.00 in0.0 mm 0.00 in0.0 mm 0.23 in5.8 mm
10:10 AM 51.2°F10.7°C 46.5°F8.1°C 84% 7.0 mph WSW11.3 kmh WSW 12.0 mph19.3 kmh 30.03 in1016.9 mb 0.00 in0.0 mm 0.00 in0.0 mm 0.23 in5.8 mm
10:15 AM 51.3°F10.7°C 46.3°F7.9°C 83% 7.0 mph SSW11.3 kmh SSW 16.0 mph25.7 kmh 30.03 in1016.9 mb 0.00 in0.0 mm 0.00 in0.0 mm 0.23 in5.8 mm
10:20 AM 51.3°F10.7°C 46.3°F7.9°C 83% 10.0 mph S16.1 kmh S 15.0 mph24.1 kmh 30.03 in1016.9 mb 0.00 in0.0 mm 0.00 in0.0 mm 0.23 in5.8 mm
10:25 AM 51.4°F10.8°C 46.4°F8.0°C 83% 3.0 mph SW4.8 kmh SW 13.0 mph20.9 kmh 30.03 in1016.9 mb 0.00 in0.0 mm 0.00 in0.0 mm 0.23 in5.8 mm
10:30 AM 51.6°F10.9°C 46.6°F8.1°C 83% 7.0 mph WSW11.3 kmh WSW 12.0 mph19.3 kmh 30.03 in1016.9 mb 0.00 in0.0 mm 0.00 in0.0 mm 0.23 in5.8 mm
10:35 AM 51.7°F10.9°C 46.3°F7.9°C 82% 5.0 mph SW8.0 kmh SW 13.0 mph20.9 kmh 30.03 in1016.9 mb 0.00 in0.0 mm 0.00 in0.0 mm 0.23 in5.8 mm
10:40 AM 51.8°F11.0°C 46.4°F8.0°C 82% 8.0 mph SW12.9 kmh SW 14.0 mph22.5 kmh 30.03 in1016.9 mb 0.00 in0.0 mm 0.00 in0.0 mm 0.23 in5.8 mm
10:45 AM 51.8°F11.0°C 46.1°F7.8°C 81% 5.0 mph SW8.0 kmh SW 11.0 mph17.7 kmh 30.03 in1016.9 mb 0.00 in0.0 mm 0.00 in0.0 mm 0.23 in5.8 mm
10:50 AM 51.9°F11.1°C 46.2°F7.9°C 81% 11.0 mph WSW17.7 kmh WSW 13.0 mph20.9 kmh 30.03 in1016.9 mb 0.00 in0.0 mm 0.00 in0.0 mm 0.23 in5.8 mm
10:55 AM 51.9°F11.1°C 46.2°F7.9°C 81% 16.0 mph SW25.7 kmh SW 17.0 mph27.4 kmh 30.03 in1016.9 mb 0.00 in0.0 mm 0.00 in0.0 mm 0.23 in5.8 mm
11:00 AM 51.8°F11.0°C 46.1°F7.8°C 81% 7.0 mph WSW11.3 kmh WSW 16.0 mph25.7 kmh 30.03 in1016.9 mb 0.00 in0.0 mm 0.00 in0.0 mm 0.23 in5.8 mm
11:05 AM 51.9°F11.1°C 46.2°F7.9°C 81% 13.0 mph WNW20.9 kmh WNW 13.0 mph20.9 kmh 30.03 in1016.9 mb 0.00 in0.0 mm 0.00 in0.0 mm 0.23 in5.8 mm
11:10 AM 51.9°F11.1°C 45.5°F7.5°C 79% 11.0 mph WSW17.7 kmh WSW 15.0 mph24.1 kmh 30.03 in1016.9 mb 0.00 in0.0 mm 0.00 in0.0 mm 0.23 in5.8 mm
11:15 AM 51.9°F11.1°C 45.2°F7.3°C 78% 7.0 mph WSW11.3 kmh WSW 14.0 mph22.5 kmh 30.03 in1016.9 mb 0.00 in0.0 mm 0.00 in0.0 mm 0.23 in5.8 mm
11:20 AM 51.9°F11.1°C 45.2°F7.3°C 78% 9.0 mph WSW14.5 kmh WSW 14.0 mph22.5 kmh 30.03 in1016.9 mb 0.00 in0.0 mm 0.00 in0.0 mm 0.23 in5.8 mm
11:25 AM 52.0°F11.1°C 44.6°F7.0°C 76% 9.0 mph WSW14.5 kmh WSW 16.0 mph25.7 kmh 30.03 in1016.9 mb 0.00 in0.0 mm 0.00 in0.0 mm 0.23 in5.8 mm
11:30 AM 51.9°F11.1°C 43.1°F6.2°C 72% 6.0 mph WSW9.7 kmh WSW 22.0 mph35.4 kmh 30.02 in1016.6 mb 0.00 in0.0 mm 0.00 in0.0 mm 0.23 in5.8 mm
11:35 AM 51.9°F11.1°C 43.8°F6.6°C 74% 14.0 mph WSW22.5 kmh WSW 16.0 mph25.7 kmh 30.03 in1016.9 mb 0.00 in0.0 mm 0.00 in0.0 mm 0.23 in5.8 mm
11:40 AM 52.1°F11.2°C 43.7°F6.5°C 73% 11.0 mph SW17.7 kmh SW 15.0 mph24.1 kmh 30.02 in1016.6 mb 0.00 in0.0 mm 0.00 in0.0 mm 0.23 in5.8 mm
11:45 AM 52.4°F11.3°C 42.5°F5.8°C 69% 9.0 mph W14.5 kmh W 17.0 mph27.4 kmh 30.02 in1016.6 mb 0.00 in0.0 mm 0.00 in0.0 mm 0.23 in5.8 mm
11:50 AM 52.4°F11.3°C 42.1°F5.6°C 68% 6.0 mph WSW9.7 kmh WSW 20.0 mph32.2 kmh 30.02 in1016.6 mb 0.00 in0.0 mm 0.00 in0.0 mm 0.23 in5.8 mm
11:55 AM 52.4°F11.3°C 42.1°F5.6°C 68% 11.0 mph WSW17.7 kmh WSW 22.0 mph35.4 kmh 30.02 in1016.6 mb 0.00 in0.0 mm 0.00 in0.0 mm 0.23 in5.8 mm
12:00 PM 52.3°F11.3°C 42.0°F5.6°C 68% 10.0 mph W16.1 kmh W 18.0 mph29.0 kmh 30.02 in1016.6 mb 0.00 in0.0 mm 0.00 in0.0 mm 0.23 in5.8 mm
12:05 PM 52.5°F11.4°C 42.6°F5.9°C 69% 12.0 mph W19.3 kmh W 14.0 mph22.5 kmh 30.02 in1016.6 mb 0.00 in0.0 mm 0.00 in0.0 mm 0.23 in5.8 mm
12:10 PM 52.8°F11.6°C 42.5°F5.8°C 68% 15.0 mph W24.1 kmh W 17.0 mph27.4 kmh 30.02 in1016.6 mb 0.00 in0.0 mm 0.00 in0.0 mm 0.23 in5.8 mm
12:15 PM 52.9°F11.6°C 41.0°F5.0°C 64% 8.0 mph WSW12.9 kmh WSW 16.0 mph25.7 kmh 30.01 in1016.3 mb 0.00 in0.0 mm 0.00 in0.0 mm 0.23 in5.8 mm
12:20 PM 53.0°F11.7°C 42.7°F5.9°C 68% 7.0 mph W11.3 kmh W 16.0 mph25.7 kmh 30.01 in1016.3 mb 0.00 in0.0 mm 0.00 in0.0 mm 0.23 in5.8 mm
12:25 PM 53.1°F11.7°C 41.6°F5.3°C 65% 9.0 mph WSW14.5 kmh WSW 20.0 mph32.2 kmh 30.01 in1016.3 mb 0.00 in0.0 mm 0.00 in0.0 mm 0.23 in5.8 mm
12:30 PM 53.5°F11.9°C 42.4°F5.8°C 66% 12.0 mph WSW19.3 kmh WSW 20.0 mph32.2 kmh 30.00 in1015.9 mb 0.00 in0.0 mm 0.00 in0.0 mm 0.23 in5.8 mm
12:35 PM 53.5°F11.9°C 42.4°F5.8°C 66% 4.0 mph W6.4 kmh W 16.0 mph25.7 kmh 30.00 in1015.9 mb 0.00 in0.0 mm 0.00 in0.0 mm 0.23 in5.8 mm
12:40 PM 53.7°F12.1°C 42.2°F5.7°C 65% 8.0 mph SW12.9 kmh SW 17.0 mph27.4 kmh 30.00 in1015.9 mb 0.00 in0.0 mm 0.00 in0.0 mm 0.23 in5.8 mm
12:45 PM 54.3°F12.4°C 41.9°F5.5°C 63% 5.0 mph WSW8.0 kmh WSW 21.0 mph33.8 kmh 30.00 in1015.9 mb 0.00 in0.0 mm 0.00 in0.0 mm 0.23 in5.8 mm
12:50 PM 55.0°F12.8°C 41.7°F5.4°C 61% 10.0 mph SW16.1 kmh SW 19.0 mph30.6 kmh 29.99 in1015.6 mb 0.00 in0.0 mm 0.00 in0.0 mm 0.23 in5.8 mm
12:55 PM 55.2°F12.9°C 41.9°F5.5°C 61% 11.0 mph WSW17.7 kmh WSW 21.0 mph33.8 kmh 29.99 in1015.6 mb 0.00 in0.0 mm 0.00 in0.0 mm 0.23 in5.8 mm
01:00 PM 55.2°F12.9°C 41.5°F5.3°C 60% 20.0 mph WSW32.2 kmh WSW 24.0 mph38.6 kmh 29.99 in1015.6 mb 0.00 in0.0 mm 0.00 in0.0 mm 0.23 in5.8 mm
01:05 PM 55.0°F12.8°C 41.7°F5.4°C 61% 13.0 mph SW20.9 kmh SW 24.0 mph38.6 kmh 29.99 in1015.6 mb 0.00 in0.0 mm 0.00 in0.0 mm 0.23 in5.8 mm
01:10 PM 54.5°F12.5°C 41.3°F5.2°C 61% 8.0 mph SW12.9 kmh SW 24.0 mph38.6 kmh 29.99 in1015.6 mb 0.00 in0.0 mm 0.00 in0.0 mm 0.23 in5.8 mm
01:15 PM 54.1°F12.3°C 41.3°F5.2°C 62% 11.0 mph W17.7 kmh W 23.0 mph37.0 kmh 29.99 in1015.6 mb 0.00 in0.0 mm 0.00 in0.0 mm 0.23 in5.8 mm
01:20 PM 53.8°F12.1°C 41.5°F5.3°C 63% 7.0 mph WSW11.3 kmh WSW 19.0 mph30.6 kmh 29.99 in1015.6 mb 0.00 in0.0 mm 0.00 in0.0 mm 0.23 in5.8 mm
01:25 PM 54.2°F12.3°C 41.8°F5.4°C 63% 5.0 mph W8.0 kmh W 14.0 mph22.5 kmh 29.99 in1015.6 mb 0.00 in0.0 mm 0.00 in0.0 mm 0.23 in5.8 mm
01:30 PM 54.7°F12.6°C 42.3°F5.7°C 63% 7.0 mph W11.3 kmh W 17.0 mph27.4 kmh 29.99 in1015.6 mb 0.00 in0.0 mm 0.00 in0.0 mm 0.23 in5.8 mm
01:35 PM 55.0°F12.8°C 40.9°F4.9°C 59% 12.0 mph WSW19.3 kmh WSW 19.0 mph30.6 kmh 29.99 in1015.6 mb 0.00 in0.0 mm 0.00 in0.0 mm 0.23 in5.8 mm
01:40 PM 54.6°F12.6°C 40.9°F4.9°C 60% 14.0 mph W22.5 kmh W 18.0 mph29.0 kmh 29.99 in1015.6 mb 0.00 in0.0 mm 0.00 in0.0 mm 0.23 in5.8 mm
01:45 PM 54.1°F12.3°C 40.0°F4.4°C 59% 8.0 mph WSW12.9 kmh WSW 17.0 mph27.4 kmh 29.99 in1015.6 mb 0.00 in0.0 mm 0.00 in0.0 mm 0.23 in5.8 mm
01:50 PM 53.8°F12.1°C 39.3°F4.1°C 58% 11.0 mph SW17.7 kmh SW 20.0 mph32.2 kmh 29.99 in1015.6 mb 0.00 in0.0 mm 0.00 in0.0 mm 0.23 in5.8 mm
01:55 PM 53.5°F11.9°C 39.0°F3.9°C 58% 14.0 mph W22.5 kmh W 19.0 mph30.6 kmh 29.99 in1015.6 mb 0.00 in0.0 mm 0.00 in0.0 mm 0.23 in5.8 mm
02:00 PM 53.5°F11.9°C 39.9°F4.4°C 60% 6.0 mph WSW9.7 kmh WSW 14.0 mph22.5 kmh 29.98 in1015.2 mb 0.00 in0.0 mm 0.00 in0.0 mm 0.23 in5.8 mm
02:05 PM 53.5°F11.9°C 40.3°F4.6°C 61% 11.0 mph W17.7 kmh W 15.0 mph24.1 kmh 29.99 in1015.6 mb 0.00 in0.0 mm 0.00 in0.0 mm 0.23 in5.8 mm
02:10 PM 53.3°F11.8°C 39.7°F4.3°C 60% 7.0 mph WSW11.3 kmh WSW 12.0 mph19.3 kmh 29.99 in1015.6 mb 0.00 in0.0 mm 0.00 in0.0 mm 0.23 in5.8 mm
02:15 PM 53.2°F11.8°C 40.5°F4.7°C 62% 4.0 mph WSW6.4 kmh WSW 14.0 mph22.5 kmh 29.99 in1015.6 mb 0.00 in0.0 mm 0.00 in0.0 mm 0.23 in5.8 mm
02:20 PM 53.2°F11.8°C 40.5°F4.7°C 62% 8.0 mph WSW12.9 kmh WSW 11.0 mph17.7 kmh 29.99 in1015.6 mb 0.00 in0.0 mm 0.00 in0.0 mm 0.23 in5.8 mm
02:25 PM 53.1°F11.7°C 40.0°F4.4°C 61% 10.0 mph WSW16.1 kmh WSW 11.0 mph17.7 kmh 29.99 in1015.6 mb 0.00 in0.0 mm 0.00 in0.0 mm 0.23 in5.8 mm
02:30 PM 53.0°F11.7°C 41.1°F5.1°C 64% 5.0 mph WSW8.0 kmh WSW 12.0 mph19.3 kmh 29.98 in1015.2 mb 0.00 in0.0 mm 0.00 in0.0 mm 0.23 in5.8 mm
02:35 PM 53.0°F11.7°C 41.1°F5.1°C 64% 14.0 mph WSW22.5 kmh WSW 14.0 mph22.5 kmh 29.98 in1015.2 mb 0.00 in0.0 mm 0.00 in0.0 mm 0.23 in5.8 mm
02:40 PM 52.9°F11.6°C 39.8°F4.3°C 61% 8.0 mph SW12.9 kmh SW 19.0 mph30.6 kmh 29.98 in1015.2 mb 0.00 in0.0 mm 0.00 in0.0 mm 0.23 in5.8 mm
02:45 PM 52.9°F11.6°C 39.8°F4.3°C 61% 7.0 mph WSW11.3 kmh WSW 14.0 mph22.5 kmh 29.98 in1015.2 mb 0.00 in0.0 mm 0.00 in0.0 mm 0.23 in5.8 mm
02:50 PM 52.9°F11.6°C 40.6°F4.8°C 63% 2.0 mph WSW3.2 kmh WSW 13.0 mph20.9 kmh 29.98 in1015.2 mb 0.00 in0.0 mm 0.00 in0.0 mm 0.23 in5.8 mm
02:55 PM 52.9°F11.6°C 41.4°F5.2°C 65% 4.0 mph SW6.4 kmh SW 7.0 mph11.3 kmh 29.98 in1015.2 mb 0.00 in0.0 mm 0.00 in0.0 mm 0.23 in5.8 mm
03:00 PM 52.9°F11.6°C 41.0°F5.0°C 64% 5.0 mph SW8.0 kmh SW 9.0 mph14.5 kmh 29.98 in1015.2 mb 0.00 in0.0 mm 0.00 in0.0 mm 0.23 in5.8 mm
03:05 PM 52.8°F11.6°C 41.3°F5.2°C 65% 3.0 mph WSW4.8 kmh WSW 7.0 mph11.3 kmh 29.98 in1015.2 mb 0.00 in0.0 mm 0.00 in0.0 mm 0.23 in5.8 mm
03:10 PM 52.8°F11.6°C 40.9°F4.9°C 64% 7.0 mph SW11.3 kmh SW 10.0 mph16.1 kmh 29.98 in1015.2 mb 0.00 in0.0 mm 0.00 in0.0 mm 0.23 in5.8 mm
03:15 PM 52.8°F11.6°C 40.9°F4.9°C 64% 6.0 mph SW9.7 kmh SW 9.0 mph14.5 kmh 29.98 in1015.2 mb 0.00 in0.0 mm 0.00 in0.0 mm 0.23 in5.8 mm
03:20 PM 52.9°F11.6°C 41.4°F5.2°C 65% 5.0 mph SSW8.0 kmh SSW 7.0 mph11.3 kmh 29.98 in1015.2 mb 0.00 in0.0 mm 0.00 in0.0 mm 0.23 in5.8 mm
03:25 PM 52.7°F11.5°C 40.4°F4.7°C 63% 5.0 mph W8.0 kmh W 11.0 mph17.7 kmh 29.98 in1015.2 mb 0.00 in0.0 mm 0.00 in0.0 mm 0.23 in5.8 mm
03:30 PM 52.6°F11.4°C 40.3°F4.6°C 63% 6.0 mph WSW9.7 kmh WSW 13.0 mph20.9 kmh 29.98 in1015.2 mb 0.00 in0.0 mm 0.00 in0.0 mm 0.23 in5.8 mm
03:35 PM 52.5°F11.4°C 41.0°F5.0°C 65% 5.0 mph SW8.0 kmh SW 10.0 mph16.1 kmh 29.98 in1015.2 mb 0.00 in0.0 mm 0.00 in0.0 mm 0.23 in5.8 mm
03:40 PM 52.4°F11.3°C 40.5°F4.7°C 64% 3.0 mph SW4.8 kmh SW 12.0 mph19.3 kmh 29.99 in1015.6 mb 0.00 in0.0 mm 0.00 in0.0 mm 0.23 in5.8 mm
03:45 PM 52.4°F11.3°C 40.5°F4.7°C 64% 4.0 mph WSW6.4 kmh WSW 10.0 mph16.1 kmh 29.98 in1015.2 mb 0.00 in0.0 mm 0.00 in0.0 mm 0.23 in5.8 mm
03:50 PM 52.3°F11.3°C 40.4°F4.7°C 64% 5.0 mph SSW8.0 kmh SSW 12.0 mph19.3 kmh 29.98 in1015.2 mb 0.00 in0.0 mm 0.00 in0.0 mm 0.23 in5.8 mm
03:55 PM 52.2°F11.2°C 40.7°F4.8°C 65% 5.0 mph SW8.0 kmh SW 12.0 mph19.3 kmh 29.98 in1015.2 mb 0.00 in0.0 mm 0.00 in0.0 mm 0.23 in5.8 mm
04:00 PM 52.1°F11.2°C 41.0°F5.0°C 66% 5.0 mph WSW8.0 kmh WSW 11.0 mph17.7 kmh 29.98 in1015.2 mb 0.00 in0.0 mm 0.00 in0.0 mm 0.23 in5.8 mm
04:05 PM 52.0°F11.1°C 40.6°F4.8°C 65% 11.0 mph SW17.7 kmh SW 11.0 mph17.7 kmh 29.98 in1015.2 mb 0.00 in0.0 mm 0.00 in0.0 mm 0.23 in5.8 mm
04:10 PM 51.9°F11.1°C 40.9°F4.9°C 66% 4.0 mph SSW6.4 kmh SSW 7.0 mph11.3 kmh 29.98 in1015.2 mb 0.00 in0.0 mm 0.00 in0.0 mm 0.23 in5.8 mm
04:15 PM 51.9°F11.1°C 40.9°F4.9°C 66% 3.0 mph WSW4.8 kmh WSW 10.0 mph16.1 kmh 29.98 in1015.2 mb 0.00 in0.0 mm 0.00 in0.0 mm 0.23 in5.8 mm
04:20 PM 51.8°F11.0°C 40.4°F4.7°C 65% 7.0 mph SW11.3 kmh SW 12.0 mph19.3 kmh 29.98 in1015.2 mb 0.00 in0.0 mm 0.00 in0.0 mm 0.23 in5.8 mm
04:25 PM 51.6°F10.9°C 40.2°F4.6°C 65% 9.0 mph SW14.5 kmh SW 14.0 mph22.5 kmh 29.98 in1015.2 mb 0.00 in0.0 mm 0.00 in0.0 mm 0.23 in5.8 mm
04:30 PM 51.2°F10.7°C 40.6°F4.8°C 67% 5.0 mph WSW8.0 kmh WSW 13.0 mph20.9 kmh 29.98 in1015.2 mb 0.00 in0.0 mm 0.00 in0.0 mm 0.23 in5.8 mm
04:35 PM 50.9°F10.5°C 40.7°F4.8°C 68% 3.0 mph WSW4.8 kmh WSW 7.0 mph11.3 kmh 29.98 in1015.2 mb 0.00 in0.0 mm 0.00 in0.0 mm 0.23 in5.8 mm
04:40 PM 50.7°F10.4°C 40.1°F4.5°C 67% 5.0 mph SW8.0 kmh SW 10.0 mph16.1 kmh 29.98 in1015.2 mb 0.00 in0.0 mm 0.00 in0.0 mm 0.23 in5.8 mm
04:45 PM 50.6°F10.3°C 40.4°F4.7°C 68% 5.0 mph SW8.0 kmh SW 10.0 mph16.1 kmh 29.98 in1015.2 mb 0.00 in0.0 mm 0.00 in0.0 mm 0.23 in5.8 mm
04:50 PM 50.5°F10.3°C 40.3°F4.6°C 68% 10.0 mph WSW16.1 kmh WSW 12.0 mph19.3 kmh 29.99 in1015.6 mb 0.00 in0.0 mm 0.00 in0.0 mm 0.23 in5.8 mm
04:55 PM 50.5°F10.3°C 39.9°F4.4°C 67% 4.0 mph SW6.4 kmh SW 9.0 mph14.5 kmh 29.98 in1015.2 mb 0.00 in0.0 mm 0.00 in0.0 mm 0.23 in5.8 mm
05:00 PM 50.4°F10.2°C 40.2°F4.6°C 68% 5.0 mph SW8.0 kmh SW 9.0 mph14.5 kmh 29.99 in1015.6 mb 0.00 in0.0 mm 0.00 in0.0 mm 0.23 in5.8 mm
05:05 PM 50.3°F10.2°C 40.8°F4.9°C 70% 4.0 mph SW6.4 kmh SW 9.0 mph14.5 kmh 29.99 in1015.6 mb 0.00 in0.0 mm 0.00 in0.0 mm 0.23 in5.8 mm
05:10 PM 50.2°F10.1°C 41.5°F5.3°C 72% 4.0 mph SSW6.4 kmh SSW 10.0 mph16.1 kmh 29.99 in1015.6 mb 0.00 in0.0 mm 0.00 in0.0 mm 0.23 in5.8 mm
05:15 PM 50.1°F10.1°C 41.7°F5.4°C 73% 7.0 mph SSW11.3 kmh SSW 13.0 mph20.9 kmh 29.99 in1015.6 mb 0.00 in0.0 mm 0.00 in0.0 mm 0.23 in5.8 mm
05:20 PM 50.0°F10.0°C 42.7°F5.9°C 76% 3.0 mph WSW4.8 kmh WSW 14.0 mph22.5 kmh 29.99 in1015.6 mb 0.02 in0.5 mm 0.24 in6.1 mm 0.24 in6.1 mm
05:25 PM 49.6°F9.8°C 43.3°F6.3°C 79% 4.0 mph NW6.4 kmh NW 10.0 mph16.1 kmh 29.99 in1015.6 mb 0.02 in0.5 mm 0.00 in0.0 mm 0.25 in6.4 mm
05:30 PM 48.7°F9.3°C 43.1°F6.2°C 81% 3.0 mph NW4.8 kmh NW 6.0 mph9.7 kmh 30.00 in1015.9 mb 0.02 in0.5 mm 0.00 in0.0 mm 0.25 in6.4 mm
05:35 PM 47.5°F8.6°C 42.5°F5.8°C 83% 2.0 mph NW3.2 kmh NW 18.0 mph29.0 kmh 30.01 in1016.3 mb 0.03 in0.8 mm 0.12 in3.0 mm 0.26 in6.6 mm
05:40 PM 46.7°F8.2°C 42.4°F5.8°C 85% 4.0 mph SW6.4 kmh SW 7.0 mph11.3 kmh 30.00 in1015.9 mb 0.03 in0.8 mm 0.00 in0.0 mm 0.26 in6.6 mm
05:45 PM 46.4°F8.0°C 41.8°F5.4°C 84% 4.0 mph SSW6.4 kmh SSW 7.0 mph11.3 kmh 30.00 in1015.9 mb 0.03 in0.8 mm 0.00 in0.0 mm 0.26 in6.6 mm
05:50 PM 46.6°F8.1°C 42.3°F5.7°C 85% 5.0 mph SW8.0 kmh SW 9.0 mph14.5 kmh 30.01 in1016.3 mb 0.03 in0.8 mm 0.00 in0.0 mm 0.26 in6.6 mm
05:55 PM 46.8°F8.2°C 42.5°F5.8°C 85% 5.0 mph SW8.0 kmh SW 10.0 mph16.1 kmh 30.01 in1016.3 mb 0.03 in0.8 mm 0.00 in0.0 mm 0.26 in6.6 mm
06:00 PM 46.9°F8.3°C 42.6°F5.9°C 85% 3.0 mph SW4.8 kmh SW 7.0 mph11.3 kmh 30.01 in1016.3 mb 0.03 in0.8 mm 0.00 in0.0 mm 0.26 in6.6 mm
06:05 PM 47.0°F8.3°C 42.4°F5.8°C 84% 6.0 mph SW9.7 kmh SW 12.0 mph19.3 kmh 30.01 in1016.3 mb 0.03 in0.8 mm 0.00 in0.0 mm 0.26 in6.6 mm
06:10 PM 47.3°F8.5°C 43.0°F6.1°C 85% 4.0 mph SW6.4 kmh SW 7.0 mph11.3 kmh 30.01 in1016.3 mb 0.03 in0.8 mm 0.00 in0.0 mm 0.26 in6.6 mm
06:15 PM 47.3°F8.5°C 42.4°F5.8°C 83% 4.0 mph SW6.4 kmh SW 11.0 mph17.7 kmh 30.01 in1016.3 mb 0.04 in1.0 mm 0.12 in3.0 mm 0.27 in6.9 mm
06:20 PM 47.3°F8.5°C 42.4°F5.8°C 83% 8.0 mph SW12.9 kmh SW 12.0 mph19.3 kmh 30.01 in1016.3 mb 0.02 in0.5 mm 0.00 in0.0 mm 0.27 in6.9 mm
06:25 PM 47.2°F8.4°C 41.9°F5.5°C 82% 9.0 mph SW14.5 kmh SW 12.0 mph19.3 kmh 30.01 in1016.3 mb 0.02 in0.5 mm 0.00 in0.0 mm 0.27 in6.9 mm
06:30 PM 47.2°F8.4°C 41.9°F5.5°C 82% 4.0 mph SW6.4 kmh SW 14.0 mph22.5 kmh 30.01 in1016.3 mb 0.02 in0.5 mm 0.00 in0.0 mm 0.27 in6.9 mm
06:35 PM 47.2°F8.4°C 41.6°F5.3°C 81% 6.0 mph W9.7 kmh W 12.0 mph19.3 kmh 30.01 in1016.3 mb 0.01 in0.3 mm 0.00 in0.0 mm 0.27 in6.9 mm
06:40 PM 47.2°F8.4°C 42.3°F5.7°C 83% 10.0 mph W16.1 kmh W 10.0 mph16.1 kmh 30.02 in1016.6 mb 0.01 in0.3 mm 0.00 in0.0 mm 0.27 in6.9 mm
06:45 PM 47.1°F8.4°C 42.2°F5.7°C 83% 9.0 mph WNW14.5 kmh WNW 12.0 mph19.3 kmh 30.02 in1016.6 mb 0.01 in0.3 mm 0.00 in0.0 mm 0.27 in6.9 mm
06:50 PM 46.9°F8.3°C 42.6°F5.9°C 85% 4.0 mph WSW6.4 kmh WSW 9.0 mph14.5 kmh 30.02 in1016.6 mb 0.02 in0.5 mm 0.12 in3.0 mm 0.28 in7.1 mm
06:55 PM 46.6°F8.1°C 42.6°F5.9°C 86% 9.0 mph SW14.5 kmh SW 12.0 mph19.3 kmh 30.02 in1016.6 mb 0.02 in0.5 mm 0.00 in0.0 mm 0.28 in7.1 mm
07:00 PM 46.4°F8.0°C 42.7°F5.9°C 87% 5.0 mph WSW8.0 kmh WSW 16.0 mph25.7 kmh 30.03 in1016.9 mb 0.02 in0.5 mm 0.00 in0.0 mm 0.28 in7.1 mm
07:05 PM 46.3°F7.9°C 41.7°F5.4°C 84% 12.0 mph SW19.3 kmh SW 16.0 mph25.7 kmh 30.03 in1016.9 mb 0.02 in0.5 mm 0.00 in0.0 mm 0.28 in7.1 mm
07:10 PM 46.3°F7.9°C 42.3°F5.7°C 86% 12.0 mph WSW19.3 kmh WSW 20.0 mph32.2 kmh 30.03 in1016.9 mb 0.02 in0.5 mm 0.00 in0.0 mm 0.28 in7.1 mm
07:15 PM 46.1°F7.8°C 41.8°F5.4°C 85% 10.0 mph WSW16.1 kmh WSW 25.0 mph40.2 kmh 30.04 in1017.3 mb 0.02 in0.5 mm 0.00 in0.0 mm 0.28 in7.1 mm
07:20 PM 45.3°F7.4°C 41.3°F5.2°C 86% 11.0 mph WSW17.7 kmh WSW 23.0 mph37.0 kmh 30.04 in1017.3 mb 0.02 in0.5 mm 0.00 in0.0 mm 0.29 in7.4 mm
07:25 PM 44.6°F7.0°C 40.6°F4.8°C 86% 5.0 mph W8.0 kmh W 24.0 mph38.6 kmh 30.04 in1017.3 mb 0.02 in0.5 mm 0.00 in0.0 mm 0.29 in7.4 mm
07:30 PM 44.2°F6.8°C 40.5°F4.7°C 87% 5.0 mph WSW8.0 kmh WSW 17.0 mph27.4 kmh 30.04 in1017.3 mb 0.03 in0.8 mm 0.12 in3.0 mm 0.30 in7.6 mm
07:35 PM 43.9°F6.6°C 40.8°F4.9°C 89% 4.0 mph WSW6.4 kmh WSW 16.0 mph25.7 kmh 30.04 in1017.3 mb 0.04 in1.0 mm 0.12 in3.0 mm 0.31 in7.9 mm
07:40 PM 43.8°F6.6°C 40.7°F4.8°C 89% 1.0 mph SW1.6 kmh SW 9.0 mph14.5 kmh 30.04 in1017.3 mb 0.04 in1.0 mm 0.00 in0.0 mm 0.31 in7.9 mm
07:45 PM 43.7°F6.5°C 40.9°F4.9°C 90% 6.0 mph WSW9.7 kmh WSW 9.0 mph14.5 kmh 30.04 in1017.3 mb 0.04 in1.0 mm 0.00 in0.0 mm 0.31 in7.9 mm
07:50 PM 43.7°F6.5°C 40.9°F4.9°C 90% 3.0 mph SW4.8 kmh SW 9.0 mph14.5 kmh 30.04 in1017.3 mb 0.03 in0.8 mm 0.00 in0.0 mm 0.31 in7.9 mm
07:55 PM 43.7°F6.5°C 40.9°F4.9°C 90% 4.0 mph SW6.4 kmh SW 5.0 mph8.0 kmh 30.04 in1017.3 mb 0.03 in0.8 mm 0.00 in0.0 mm 0.31 in7.9 mm
08:00 PM 43.8°F6.6°C 41.3°F5.2°C 91% 6.0 mph SSW9.7 kmh SSW 6.0 mph9.7 kmh 30.04 in1017.3 mb 0.03 in0.8 mm 0.00 in0.0 mm 0.31 in7.9 mm
08:05 PM 43.9°F6.6°C 41.4°F5.2°C 91% 11.0 mph SW17.7 kmh SW 11.0 mph17.7 kmh 30.04 in1017.3 mb 0.04 in1.0 mm 0.12 in3.0 mm 0.31 in7.9 mm
08:10 PM 44.0°F6.7°C 41.5°F5.3°C 91% 6.0 mph WSW9.7 kmh WSW 11.0 mph17.7 kmh 30.04 in1017.3 mb 0.04 in1.0 mm 0.00 in0.0 mm 0.31 in7.9 mm
08:15 PM 44.2°F6.8°C 42.0°F5.6°C 92% 7.0 mph WSW11.3 kmh WSW 14.0 mph22.5 kmh 30.04 in1017.3 mb 0.04 in1.0 mm 0.00 in0.0 mm 0.32 in8.1 mm
08:20 PM 44.4°F6.9°C 42.2°F5.7°C 92% 5.0 mph WSW8.0 kmh WSW 13.0 mph20.9 kmh 30.04 in1017.3 mb 0.03 in0.8 mm 0.00 in0.0 mm 0.32 in8.1 mm
08:25 PM 44.4°F6.9°C 42.2°F5.7°C 92% 5.0 mph WSW8.0 kmh WSW 11.0 mph17.7 kmh 30.04 in1017.3 mb 0.03 in0.8 mm 0.00 in0.0 mm 0.32 in8.1 mm
08:30 PM 44.5°F6.9°C 42.3°F5.7°C 92% 7.0 mph WSW11.3 kmh WSW 12.0 mph19.3 kmh 30.04 in1017.3 mb 0.02 in0.5 mm 0.00 in0.0 mm 0.32 in8.1 mm
08:35 PM 44.5°F6.9°C 42.3°F5.7°C 92% 6.0 mph W9.7 kmh W 10.0 mph16.1 kmh 30.04 in1017.3 mb 0.02 in0.5 mm 0.00 in0.0 mm 0.33 in8.4 mm
08:40 PM 44.5°F6.9°C 42.3°F5.7°C 92% 4.0 mph WSW6.4 kmh WSW 10.0 mph16.1 kmh 30.04 in1017.3 mb 0.02 in0.5 mm 0.00 in0.0 mm 0.33 in8.4 mm
08:45 PM 44.5°F6.9°C 42.6°F5.9°C 93% 3.0 mph SW4.8 kmh SW 11.0 mph17.7 kmh 30.04 in1017.3 mb 0.02 in0.5 mm 0.00 in0.0 mm 0.33 in8.4 mm
08:50 PM 44.5°F6.9°C 42.6°F5.9°C 93% 4.0 mph SW6.4 kmh SW 10.0 mph16.1 kmh 30.05 in1017.6 mb 0.03 in0.8 mm 0.12 in3.0 mm 0.34 in8.6 mm
08:55 PM 44.5°F6.9°C 42.0°F5.6°C 91% 10.0 mph WSW16.1 kmh WSW 20.0 mph32.2 kmh 30.05 in1017.6 mb 0.04 in1.0 mm 0.12 in3.0 mm 0.35 in8.9 mm
09:00 PM 44.5°F6.9°C 42.3°F5.7°C 92% 4.0 mph WSW6.4 kmh WSW 13.0 mph20.9 kmh 30.05 in1017.6 mb 0.05 in1.3 mm 0.01 in0.3 mm 0.35 in8.9 mm
09:05 PM 44.5°F6.9°C 42.6°F5.9°C 93% 6.0 mph SW9.7 kmh SW 9.0 mph14.5 kmh 30.04 in1017.3 mb 0.04 in1.0 mm 0.00 in0.0 mm 0.35 in8.9 mm
09:10 PM 44.4°F6.9°C 42.2°F5.7°C 92% 5.0 mph S8.0 kmh S 6.0 mph9.7 kmh 30.04 in1017.3 mb 0.04 in1.0 mm 0.00 in0.0 mm 0.35 in8.9 mm
09:15 PM 44.4°F6.9°C 42.2°F5.7°C 92% 5.0 mph SW8.0 kmh SW 7.0 mph11.3 kmh 30.05 in1017.6 mb 0.03 in0.8 mm 0.00 in0.0 mm 0.35 in8.9 mm
09:20 PM 44.5°F6.9°C 42.3°F5.7°C 92% 3.0 mph WSW4.8 kmh WSW 8.0 mph12.9 kmh 30.05 in1017.6 mb 0.03 in0.8 mm 0.00 in0.0 mm 0.35 in8.9 mm
09:25 PM 44.5°F6.9°C 42.3°F5.7°C 92% 4.0 mph WSW6.4 kmh WSW 9.0 mph14.5 kmh 30.05 in1017.6 mb 0.03 in0.8 mm 0.00 in0.0 mm 0.35 in8.9 mm
09:30 PM 44.5°F6.9°C 42.3°F5.7°C 92% 5.0 mph WSW8.0 kmh WSW 7.0 mph11.3 kmh 30.05 in1017.6 mb 0.03 in0.8 mm 0.00 in0.0 mm 0.35 in8.9 mm
09:35 PM 44.4°F6.9°C 42.2°F5.7°C 92% 5.0 mph SW8.0 kmh SW 6.0 mph9.7 kmh 30.05 in1017.6 mb 0.02 in0.5 mm 0.00 in0.0 mm 0.35 in8.9 mm
09:40 PM 44.4°F6.9°C 42.2°F5.7°C 92% 2.0 mph SW3.2 kmh SW 7.0 mph11.3 kmh 30.05 in1017.6 mb 0.02 in0.5 mm 0.00 in0.0 mm 0.35 in8.9 mm
09:45 PM 44.3°F6.8°C 42.1°F5.6°C 92% 1.0 mph SW1.6 kmh SW 5.0 mph8.0 kmh 30.05 in1017.6 mb 0.02 in0.5 mm 0.00 in0.0 mm 0.35 in8.9 mm
09:50 PM 44.3°F6.8°C 42.1°F5.6°C 92% 2.0 mph WSW3.2 kmh WSW 5.0 mph8.0 kmh 30.05 in1017.6 mb 0.02 in0.5 mm 0.00 in0.0 mm 0.35 in8.9 mm
09:55 PM 44.3°F6.8°C 42.1°F5.6°C 92% 4.0 mph WSW6.4 kmh WSW 5.0 mph8.0 kmh 30.05 in1017.6 mb 0.01 in0.3 mm 0.00 in0.0 mm 0.35 in8.9 mm
10:00 PM 44.3°F6.8°C 42.4°F5.8°C 93% 4.0 mph SSW6.4 kmh SSW 6.0 mph9.7 kmh 30.05 in1017.6 mb 0.00 in0.0 mm 0.00 in0.0 mm 0.35 in8.9 mm
10:05 PM 44.4°F6.9°C 42.5°F5.8°C 93% 3.0 mph SW4.8 kmh SW 7.0 mph11.3 kmh 30.04 in1017.3 mb 0.00 in0.0 mm 0.00 in0.0 mm 0.35 in8.9 mm
10:10 PM 44.4°F6.9°C 42.5°F5.8°C 93% 1.0 mph SW1.6 kmh SW 10.0 mph16.1 kmh 30.04 in1017.3 mb 0.00 in0.0 mm 0.00 in0.0 mm 0.35 in8.9 mm
10:15 PM 44.5°F6.9°C 42.6°F5.9°C 93% 3.0 mph WSW4.8 kmh WSW 6.0 mph9.7 kmh 30.04 in1017.3 mb 0.00 in0.0 mm 0.00 in0.0 mm 0.35 in8.9 mm
10:20 PM 44.5°F6.9°C 42.6°F5.9°C 93% 4.0 mph SW6.4 kmh SW 7.0 mph11.3 kmh 30.04 in1017.3 mb 0.00 in0.0 mm 0.00 in0.0 mm 0.35 in8.9 mm
10:25 PM 44.6°F7.0°C 42.7°F5.9°C 93% 2.0 mph W3.2 kmh W 10.0 mph16.1 kmh 30.04 in1017.3 mb 0.00 in0.0 mm 0.00 in0.0 mm 0.35 in8.9 mm
10:30 PM 44.7°F7.1°C 42.8°F6.0°C 93% 3.0 mph WSW4.8 kmh WSW 9.0 mph14.5 kmh 30.04 in1017.3 mb 0.00 in0.0 mm 0.00 in0.0 mm 0.35 in8.9 mm
10:35 PM 44.8°F7.1°C 42.9°F6.1°C 93% 4.0 mph SW6.4 kmh SW 10.0 mph16.1 kmh 30.04 in1017.3 mb 0.00 in0.0 mm 0.00 in0.0 mm 0.35 in8.9 mm
10:40 PM 44.9°F7.2°C 42.9°F6.1°C 93% 4.0 mph WSW6.4 kmh WSW 10.0 mph16.1 kmh 30.04 in1017.3 mb 0.00 in0.0 mm 0.00 in0.0 mm 0.35 in8.9 mm
10:45 PM 45.0°F7.2°C 43.0°F6.1°C 93% 5.0 mph WSW8.0 kmh WSW 10.0 mph16.1 kmh 30.04 in1017.3 mb 0.00 in0.0 mm 0.00 in0.0 mm 0.35 in8.9 mm
10:50 PM 45.0°F7.2°C 42.8°F6.0°C 92% 8.0 mph WSW12.9 kmh WSW 12.0 mph19.3 kmh 30.04 in1017.3 mb 0.00 in0.0 mm 0.00 in0.0 mm 0.35 in8.9 mm
10:55 PM 45.0°F7.2°C 42.8°F6.0°C 92% 2.0 mph WSW3.2 kmh WSW 10.0 mph16.1 kmh 30.04 in1017.3 mb 0.00 in0.0 mm 0.00 in0.0 mm 0.35 in8.9 mm
11:00 PM 45.0°F7.2°C 42.8°F6.0°C 92% 6.0 mph SW9.7 kmh SW 10.0 mph16.1 kmh 30.04 in1017.3 mb 0.00 in0.0 mm 0.00 in0.0 mm 0.35 in8.9 mm
11:05 PM 45.0°F7.2°C 42.8°F6.0°C 92% 5.0 mph WSW8.0 kmh WSW 12.0 mph19.3 kmh 30.04 in1017.3 mb 0.00 in0.0 mm 0.00 in0.0 mm 0.31 in7.9 mm
11:10 PM 45.0°F7.2°C 42.8°F6.0°C 92% 6.0 mph WSW9.7 kmh WSW 11.0 mph17.7 kmh 30.04 in1017.3 mb 0.00 in0.0 mm 0.00 in0.0 mm 0.31 in7.9 mm
11:15 PM 45.1°F7.3°C 42.9°F6.1°C 92% 5.0 mph WSW8.0 kmh WSW 10.0 mph16.1 kmh 30.04 in1017.3 mb 0.00 in0.0 mm 0.00 in0.0 mm 0.31 in7.9 mm
11:20 PM 45.1°F7.3°C 42.9°F6.1°C 92% 3.0 mph SW4.8 kmh SW 10.0 mph16.1 kmh 30.03 in1016.9 mb 0.00 in0.0 mm 0.00 in0.0 mm 0.31 in7.9 mm
11:25 PM 45.1°F7.3°C 42.6°F5.9°C 91% 4.0 mph W6.4 kmh W 13.0 mph20.9 kmh 30.03 in1016.9 mb 0.00 in0.0 mm 0.00 in0.0 mm 0.31 in7.9 mm
11:30 PM 45.1°F7.3°C 42.9°F6.1°C 92% 5.0 mph WSW8.0 kmh WSW 10.0 mph16.1 kmh 30.03 in1016.9 mb 0.00 in0.0 mm 0.00 in0.0 mm 0.31 in7.9 mm
11:35 PM 45.1°F7.3°C 42.9°F6.1°C 92% 4.0 mph SW6.4 kmh SW 12.0 mph19.3 kmh 30.03 in1016.9 mb 0.00 in0.0 mm 0.00 in0.0 mm 0.31 in7.9 mm
11:40 PM 45.1°F7.3°C 42.9°F6.1°C 92% 6.0 mph WSW9.7 kmh WSW 13.0 mph20.9 kmh 30.03 in1016.9 mb 0.00 in0.0 mm 0.00 in0.0 mm 0.31 in7.9 mm
11:45 PM 45.0°F7.2°C 42.8°F6.0°C 92% 9.0 mph WSW14.5 kmh WSW 12.0 mph19.3 kmh 30.03 in1016.9 mb 0.00 in0.0 mm 0.00 in0.0 mm 0.31 in7.9 mm
11:50 PM 45.1°F7.3°C 42.6°F5.9°C 91% 9.0 mph W14.5 kmh W 13.0 mph20.9 kmh 30.02 in1016.6 mb 0.00 in0.0 mm 0.00 in0.0 mm 0.31 in7.9 mm
11:55 PM 45.0°F7.2°C 42.5°F5.8°C 91% 9.0 mph WSW14.5 kmh WSW 15.0 mph24.1 kmh 30.03 in1016.9 mb 0.00 in0.0 mm 0.00 in0.0 mm 0.31 in7.9 mm